sensor_id;sensor_type;location;lat;lon;timestamp;P1;durP1;ratioP1;P2;durP2;ratioP2
70444;SDS011;57902;49.638;11.070;2023-07-28T00:01:47;5.88;;;3.10;;
70444;SDS011;57902;49.638;11.070;2023-07-28T00:04:16;7.68;;;2.90;;
70444;SDS011;57902;49.638;11.070;2023-07-28T00:06:43;5.35;;;2.75;;
70444;SDS011;57902;49.638;11.070;2023-07-28T00:09:09;7.22;;;2.83;;
70444;SDS011;57902;49.638;11.070;2023-07-28T00:11:36;5.88;;;2.60;;
70444;SDS011;57902;49.638;11.070;2023-07-28T00:14:02;4.72;;;2.30;;
70444;SDS011;57902;49.638;11.070;2023-07-28T00:16:35;5.30;;;2.40;;
70444;SDS011;57902;49.638;11.070;2023-07-28T00:19:09;4.63;;;2.33;;
70444;SDS011;57902;49.638;11.070;2023-07-28T00:21:36;3.88;;;1.73;;
70444;SDS011;57902;49.638;11.070;2023-07-28T00:24:04;3.95;;;1.70;;
70444;SDS011;57902;49.638;11.070;2023-07-28T00:26:31;4.15;;;1.90;;
70444;SDS011;57902;49.638;11.070;2023-07-28T00:29:00;3.10;;;1.67;;
70444;SDS011;57902;49.638;11.070;2023-07-28T00:31:27;4.32;;;1.95;;
70444;SDS011;57902;49.638;11.070;2023-07-28T00:33:54;4.38;;;2.38;;
70444;SDS011;57902;49.638;11.070;2023-07-28T00:36:20;4.18;;;1.75;;
70444;SDS011;57902;49.638;11.070;2023-07-28T00:38:49;4.38;;;2.03;;
70444;SDS011;57902;49.638;11.070;2023-07-28T00:41:20;4.78;;;2.00;;
70444;SDS011;57902;49.638;11.070;2023-07-28T00:43:46;4.80;;;1.90;;
70444;SDS011;57902;49.638;11.070;2023-07-28T00:46:13;4.88;;;2.00;;
70444;SDS011;57902;49.638;11.070;2023-07-28T00:48:40;4.65;;;2.10;;
70444;SDS011;57902;49.638;11.070;2023-07-28T00:51:07;3.92;;;1.92;;
70444;SDS011;57902;49.638;11.070;2023-07-28T00:53:34;3.38;;;1.75;;
70444;SDS011;57902;49.638;11.070;2023-07-28T00:56:08;4.78;;;2.25;;
70444;SDS011;57902;49.638;11.070;2023-07-28T00:58:39;4.35;;;1.92;;
70444;SDS011;57902;49.638;11.070;2023-07-28T01:01:19;8.18;;;2.05;;
70444;SDS011;57902;49.638;11.070;2023-07-28T01:03:46;4.70;;;1.95;;
70444;SDS011;57902;49.638;11.070;2023-07-28T01:09:10;4.22;;;1.98;;
70444;SDS011;57902;49.638;11.070;2023-07-28T01:11:55;3.42;;;1.70;;
70444;SDS011;57902;49.638;11.070;2023-07-28T01:14:25;4.38;;;1.73;;
70444;SDS011;57902;49.638;11.070;2023-07-28T01:16:52;4.13;;;1.92;;
70444;SDS011;57902;49.638;11.070;2023-07-28T01:19:26;3.72;;;1.95;;
70444;SDS011;57902;49.638;11.070;2023-07-28T01:26:08;4.28;;;1.98;;
70444;SDS011;57902;49.638;11.070;2023-07-28T01:31:32;3.80;;;1.77;;
70444;SDS011;57902;49.638;11.070;2023-07-28T01:34:02;4.00;;;1.85;;
70444;SDS011;57902;49.638;11.070;2023-07-28T01:36:29;3.60;;;1.83;;
70444;SDS011;57902;49.638;11.070;2023-07-28T01:38:55;3.78;;;1.63;;
70444;SDS011;57902;49.638;11.070;2023-07-28T01:41:22;3.95;;;1.92;;
70444;SDS011;57902;49.638;11.070;2023-07-28T01:43:49;5.13;;;1.90;;
70444;SDS011;57902;49.638;11.070;2023-07-28T01:46:15;4.57;;;1.83;;
70444;SDS011;57902;49.638;11.070;2023-07-28T01:48:42;4.85;;;1.92;;
70444;SDS011;57902;49.638;11.070;2023-07-28T01:51:08;4.25;;;2.00;;
70444;SDS011;57902;49.638;11.070;2023-07-28T01:53:35;5.25;;;1.88;;
70444;SDS011;57902;49.638;11.070;2023-07-28T01:56:02;4.75;;;1.90;;
70444;SDS011;57902;49.638;11.070;2023-07-28T01:58:28;3.85;;;1.80;;
70444;SDS011;57902;49.638;11.070;2023-07-28T02:00:55;4.95;;;1.90;;
70444;SDS011;57902;49.638;11.070;2023-07-28T02:03:21;4.85;;;2.08;;
70444;SDS011;57902;49.638;11.070;2023-07-28T02:05:48;4.03;;;1.90;;
70444;SDS011;57902;49.638;11.070;2023-07-28T02:08:16;4.20;;;2.00;;
70444;SDS011;57902;49.638;11.070;2023-07-28T02:10:44;4.47;;;2.10;;
70444;SDS011;57902;49.638;11.070;2023-07-28T02:13:11;4.63;;;2.00;;
70444;SDS011;57902;49.638;11.070;2023-07-28T02:15:37;4.85;;;1.67;;
70444;SDS011;57902;49.638;11.070;2023-07-28T02:18:06;4.93;;;1.88;;
70444;SDS011;57902;49.638;11.070;2023-07-28T02:20:33;4.18;;;1.95;;
70444;SDS011;57902;49.638;11.070;2023-07-28T02:23:02;4.65;;;1.92;;
70444;SDS011;57902;49.638;11.070;2023-07-28T02:25:29;3.85;;;1.90;;
70444;SDS011;57902;49.638;11.070;2023-07-28T02:27:55;3.90;;;1.90;;
70444;SDS011;57902;49.638;11.070;2023-07-28T02:30:22;5.70;;;2.33;;
70444;SDS011;57902;49.638;11.070;2023-07-28T02:32:49;5.25;;;2.33;;
70444;SDS011;57902;49.638;11.070;2023-07-28T02:35:15;4.72;;;2.53;;
70444;SDS011;57902;49.638;11.070;2023-07-28T02:37:46;4.80;;;2.17;;
70444;SDS011;57902;49.638;11.070;2023-07-28T02:40:12;4.55;;;2.10;;
70444;SDS011;57902;49.638;11.070;2023-07-28T02:42:39;5.35;;;2.00;;
70444;SDS011;57902;49.638;11.070;2023-07-28T02:45:06;4.82;;;2.00;;
70444;SDS011;57902;49.638;11.070;2023-07-28T02:47:32;5.18;;;2.03;;
70444;SDS011;57902;49.638;11.070;2023-07-28T02:49:59;3.67;;;1.88;;
70444;SDS011;57902;49.638;11.070;2023-07-28T02:52:26;5.05;;;1.98;;
70444;SDS011;57902;49.638;11.070;2023-07-28T02:54:53;4.38;;;1.63;;
70444;SDS011;57902;49.638;11.070;2023-07-28T02:57:20;3.97;;;1.60;;
70444;SDS011;57902;49.638;11.070;2023-07-28T02:59:47;2.85;;;1.58;;
70444;SDS011;57902;49.638;11.070;2023-07-28T03:02:13;3.90;;;1.58;;
70444;SDS011;57902;49.638;11.070;2023-07-28T03:04:40;2.97;;;1.30;;
70444;SDS011;57902;49.638;11.070;2023-07-28T03:07:06;2.85;;;1.50;;
70444;SDS011;57902;49.638;11.070;2023-07-28T03:09:33;2.95;;;1.38;;
70444;SDS011;57902;49.638;11.070;2023-07-28T03:11:59;2.80;;;1.40;;
70444;SDS011;57902;49.638;11.070;2023-07-28T03:14:26;2.45;;;1.10;;
70444;SDS011;57902;49.638;11.070;2023-07-28T03:16:52;2.38;;;1.23;;
70444;SDS011;57902;49.638;11.070;2023-07-28T03:19:19;2.40;;;1.30;;
70444;SDS011;57902;49.638;11.070;2023-07-28T03:21:45;2.80;;;1.30;;
70444;SDS011;57902;49.638;11.070;2023-07-28T03:24:12;2.00;;;1.27;;
70444;SDS011;57902;49.638;11.070;2023-07-28T03:26:39;2.15;;;1.20;;
70444;SDS011;57902;49.638;11.070;2023-07-28T03:29:05;2.53;;;1.23;;
70444;SDS011;57902;49.638;11.070;2023-07-28T03:31:32;4.32;;;1.40;;
70444;SDS011;57902;49.638;11.070;2023-07-28T03:34:02;2.22;;;1.20;;
70444;SDS011;57902;49.638;11.070;2023-07-28T03:36:29;2.92;;;1.20;;
70444;SDS011;57902;49.638;11.070;2023-07-28T03:38:56;2.50;;;1.20;;
70444;SDS011;57902;49.638;11.070;2023-07-28T03:41:23;2.30;;;1.35;;
70444;SDS011;57902;49.638;11.070;2023-07-28T03:43:49;3.30;;;1.27;;
70444;SDS011;57902;49.638;11.070;2023-07-28T03:46:16;3.35;;;1.25;;
70444;SDS011;57902;49.638;11.070;2023-07-28T03:48:45;3.35;;;1.30;;
70444;SDS011;57902;49.638;11.070;2023-07-28T03:51:12;3.63;;;1.40;;
70444;SDS011;57902;49.638;11.070;2023-07-28T03:53:38;3.28;;;1.30;;
70444;SDS011;57902;49.638;11.070;2023-07-28T03:56:05;2.65;;;1.30;;
70444;SDS011;57902;49.638;11.070;2023-07-28T03:58:31;2.83;;;1.40;;
70444;SDS011;57902;49.638;11.070;2023-07-28T04:00:58;2.70;;;1.35;;
70444;SDS011;57902;49.638;11.070;2023-07-28T04:03:25;3.05;;;1.45;;
70444;SDS011;57902;49.638;11.070;2023-07-28T04:05:51;3.35;;;1.45;;
70444;SDS011;57902;49.638;11.070;2023-07-28T04:08:18;3.35;;;1.70;;
70444;SDS011;57902;49.638;11.070;2023-07-28T04:10:44;3.85;;;1.77;;
70444;SDS011;57902;49.638;11.070;2023-07-28T04:13:11;3.28;;;1.60;;
70444;SDS011;57902;49.638;11.070;2023-07-28T04:15:37;2.65;;;1.40;;
70444;SDS011;57902;49.638;11.070;2023-07-28T04:18:04;3.30;;;1.60;;
70444;SDS011;57902;49.638;11.070;2023-07-28T04:20:31;2.90;;;1.30;;
70444;SDS011;57902;49.638;11.070;2023-07-28T04:22:57;2.83;;;1.38;;
70444;SDS011;57902;49.638;11.070;2023-07-28T04:25:24;3.22;;;1.80;;
70444;SDS011;57902;49.638;11.070;2023-07-28T04:27:50;2.97;;;1.33;;
70444;SDS011;57902;49.638;11.070;2023-07-28T04:30:17;3.10;;;1.50;;
70444;SDS011;57902;49.638;11.070;2023-07-28T04:32:43;2.97;;;1.30;;
70444;SDS011;57902;49.638;11.070;2023-07-28T04:35:10;2.58;;;1.40;;
70444;SDS011;57902;49.638;11.070;2023-07-28T04:37:36;2.80;;;1.33;;
70444;SDS011;57902;49.638;11.070;2023-07-28T04:40:03;2.95;;;1.60;;
70444;SDS011;57902;49.638;11.070;2023-07-28T04:42:30;3.40;;;1.48;;
70444;SDS011;57902;49.638;11.070;2023-07-28T04:44:56;6.03;;;1.65;;
70444;SDS011;57902;49.638;11.070;2023-07-28T04:47:23;2.70;;;1.35;;
70444;SDS011;57902;49.638;11.070;2023-07-28T04:49:50;3.58;;;1.65;;
70444;SDS011;57902;49.638;11.070;2023-07-28T04:52:16;4.40;;;2.00;;
70444;SDS011;57902;49.638;11.070;2023-07-28T04:54:43;3.25;;;1.73;;
70444;SDS011;57902;49.638;11.070;2023-07-28T04:57:09;5.97;;;2.35;;
70444;SDS011;57902;49.638;11.070;2023-07-28T04:59:39;4.25;;;2.10;;
70444;SDS011;57902;49.638;11.070;2023-07-28T05:02:06;4.00;;;1.90;;
70444;SDS011;57902;49.638;11.070;2023-07-28T05:04:32;4.88;;;2.38;;
70444;SDS011;57902;49.638;11.070;2023-07-28T05:06:59;5.40;;;2.28;;
70444;SDS011;57902;49.638;11.070;2023-07-28T05:10:22;5.45;;;2.80;;
70444;SDS011;57902;49.638;11.070;2023-07-28T05:13:00;4.43;;;2.30;;
70444;SDS011;57902;49.638;11.070;2023-07-28T05:15:27;5.00;;;2.40;;
70444;SDS011;57902;49.638;11.070;2023-07-28T05:17:53;5.70;;;2.67;;
70444;SDS011;57902;49.638;11.070;2023-07-28T05:20:20;5.28;;;2.53;;
70444;SDS011;57902;49.638;11.070;2023-07-28T05:22:46;6.03;;;2.70;;
70444;SDS011;57902;49.638;11.070;2023-07-28T05:25:13;6.07;;;2.50;;
70444;SDS011;57902;49.638;11.070;2023-07-28T05:27:39;5.40;;;2.80;;
70444;SDS011;57902;49.638;11.070;2023-07-28T05:30:06;4.78;;;2.53;;
70444;SDS011;57902;49.638;11.070;2023-07-28T05:32:33;5.70;;;2.70;;
70444;SDS011;57902;49.638;11.070;2023-07-28T05:35:00;6.50;;;2.90;;
70444;SDS011;57902;49.638;11.070;2023-07-28T05:37:27;5.90;;;2.90;;
70444;SDS011;57902;49.638;11.070;2023-07-28T05:39:53;5.70;;;2.58;;
70444;SDS011;57902;49.638;11.070;2023-07-28T05:42:20;5.88;;;2.80;;
70444;SDS011;57902;49.638;11.070;2023-07-28T05:44:46;7.53;;;3.22;;
70444;SDS011;57902;49.638;11.070;2023-07-28T05:47:13;5.97;;;2.90;;
70444;SDS011;57902;49.638;11.070;2023-07-28T05:49:40;5.70;;;2.90;;
70444;SDS011;57902;49.638;11.070;2023-07-28T05:52:06;7.40;;;3.05;;
70444;SDS011;57902;49.638;11.070;2023-07-28T05:54:33;5.47;;;2.97;;
70444;SDS011;57902;49.638;11.070;2023-07-28T05:57:00;6.15;;;3.05;;
70444;SDS011;57902;49.638;11.070;2023-07-28T05:59:26;6.85;;;2.97;;
70444;SDS011;57902;49.638;11.070;2023-07-28T06:01:53;7.93;;;2.97;;
70444;SDS011;57902;49.638;11.070;2023-07-28T06:04:19;5.43;;;3.03;;
70444;SDS011;57902;49.638;11.070;2023-07-28T06:06:46;6.80;;;3.22;;
70444;SDS011;57902;49.638;11.070;2023-07-28T06:09:19;7.03;;;3.40;;
70444;SDS011;57902;49.638;11.070;2023-07-28T06:11:46;7.68;;;3.50;;
70444;SDS011;57902;49.638;11.070;2023-07-28T06:14:12;7.45;;;3.33;;
70444;SDS011;57902;49.638;11.070;2023-07-28T06:16:39;6.68;;;3.40;;
70444;SDS011;57902;49.638;11.070;2023-07-28T06:19:06;6.15;;;3.10;;
70444;SDS011;57902;49.638;11.070;2023-07-28T06:21:34;6.00;;;2.85;;
70444;SDS011;57902;49.638;11.070;2023-07-28T06:24:01;6.10;;;3.00;;
70444;SDS011;57902;49.638;11.070;2023-07-28T06:26:28;7.25;;;3.10;;
70444;SDS011;57902;49.638;11.070;2023-07-28T06:28:54;6.45;;;2.83;;
70444;SDS011;57902;49.638;11.070;2023-07-28T06:31:21;5.95;;;3.22;;
70444;SDS011;57902;49.638;11.070;2023-07-28T06:33:48;6.80;;;3.30;;
70444;SDS011;57902;49.638;11.070;2023-07-28T06:36:14;5.38;;;2.67;;
70444;SDS011;57902;49.638;11.070;2023-07-28T06:38:40;5.65;;;2.70;;
70444;SDS011;57902;49.638;11.070;2023-07-28T06:41:10;6.38;;;2.63;;
70444;SDS011;57902;49.638;11.070;2023-07-28T06:43:36;5.18;;;2.72;;
70444;SDS011;57902;49.638;11.070;2023-07-28T06:46:03;5.63;;;2.55;;
70444;SDS011;57902;49.638;11.070;2023-07-28T06:48:29;6.47;;;2.60;;
70444;SDS011;57902;49.638;11.070;2023-07-28T06:50:56;5.45;;;2.70;;
70444;SDS011;57902;49.638;11.070;2023-07-28T06:53:23;5.95;;;2.70;;
70444;SDS011;57902;49.638;11.070;2023-07-28T06:55:49;6.00;;;2.97;;
70444;SDS011;57902;49.638;11.070;2023-07-28T06:58:16;5.75;;;2.55;;
70444;SDS011;57902;49.638;11.070;2023-07-28T07:00:42;5.60;;;2.78;;
70444;SDS011;57902;49.638;11.070;2023-07-28T07:03:09;6.47;;;3.00;;
70444;SDS011;57902;49.638;11.070;2023-07-28T07:05:36;7.10;;;3.00;;
70444;SDS011;57902;49.638;11.070;2023-07-28T07:08:03;7.22;;;2.67;;
70444;SDS011;57902;49.638;11.070;2023-07-28T07:10:30;7.07;;;2.60;;
70444;SDS011;57902;49.638;11.070;2023-07-28T07:12:56;5.82;;;2.65;;
70444;SDS011;57902;49.638;11.070;2023-07-28T07:15:23;5.75;;;2.53;;
70444;SDS011;57902;49.638;11.070;2023-07-28T07:17:49;5.40;;;2.55;;
70444;SDS011;57902;49.638;11.070;2023-07-28T07:20:16;6.25;;;2.80;;
70444;SDS011;57902;49.638;11.070;2023-07-28T07:22:43;5.97;;;3.00;;
70444;SDS011;57902;49.638;11.070;2023-07-28T07:25:09;5.47;;;2.50;;
70444;SDS011;57902;49.638;11.070;2023-07-28T07:27:36;5.13;;;2.53;;
70444;SDS011;57902;49.638;11.070;2023-07-28T07:30:03;5.43;;;2.22;;
70444;SDS011;57902;49.638;11.070;2023-07-28T07:32:32;5.32;;;2.70;;
70444;SDS011;57902;49.638;11.070;2023-07-28T07:34:59;6.10;;;2.60;;
70444;SDS011;57902;49.638;11.070;2023-07-28T07:37:26;5.32;;;2.42;;
70444;SDS011;57902;49.638;11.070;2023-07-28T07:39:53;5.20;;;2.30;;
70444;SDS011;57902;49.638;11.070;2023-07-28T07:42:21;5.13;;;2.22;;
70444;SDS011;57902;49.638;11.070;2023-07-28T07:44:47;3.90;;;1.90;;
70444;SDS011;57902;49.638;11.070;2023-07-28T07:47:14;4.32;;;2.13;;
70444;SDS011;57902;49.638;11.070;2023-07-28T07:49:42;5.82;;;2.00;;
70444;SDS011;57902;49.638;11.070;2023-07-28T07:52:10;4.40;;;1.67;;
70444;SDS011;57902;49.638;11.070;2023-07-28T07:54:36;2.40;;;1.48;;
70444;SDS011;57902;49.638;11.070;2023-07-28T07:57:03;4.10;;;2.00;;
70444;SDS011;57902;49.638;11.070;2023-07-28T07:59:30;3.30;;;1.60;;
70444;SDS011;57902;49.638;11.070;2023-07-28T08:02:01;2.88;;;1.50;;
70444;SDS011;57902;49.638;11.070;2023-07-28T08:04:29;3.53;;;1.63;;
70444;SDS011;57902;49.638;11.070;2023-07-28T08:06:56;3.40;;;1.50;;
70444;SDS011;57902;49.638;11.070;2023-07-28T08:09:23;3.60;;;1.67;;
70444;SDS011;57902;49.638;11.070;2023-07-28T08:11:49;4.93;;;1.73;;
70444;SDS011;57902;49.638;11.070;2023-07-28T08:14:16;3.65;;;1.35;;
70444;SDS011;57902;49.638;11.070;2023-07-28T08:16:43;3.38;;;1.50;;
70444;SDS011;57902;49.638;11.070;2023-07-28T08:19:10;3.88;;;1.73;;
70444;SDS011;57902;49.638;11.070;2023-07-28T08:21:36;3.72;;;1.55;;
70444;SDS011;57902;49.638;11.070;2023-07-28T08:24:03;2.80;;;1.30;;
70444;SDS011;57902;49.638;11.070;2023-07-28T08:26:30;2.00;;;1.13;;
70444;SDS011;57902;49.638;11.070;2023-07-28T08:28:57;3.08;;;1.40;;
70444;SDS011;57902;49.638;11.070;2023-07-28T08:31:23;2.78;;;1.10;;
70444;SDS011;57902;49.638;11.070;2023-07-28T08:33:50;2.72;;;1.30;;
70444;SDS011;57902;49.638;11.070;2023-07-28T08:36:16;3.85;;;1.40;;
70444;SDS011;57902;49.638;11.070;2023-07-28T08:38:43;3.22;;;1.30;;
70444;SDS011;57902;49.638;11.070;2023-07-28T08:46:07;3.45;;;1.15;;
70444;SDS011;57902;49.638;11.070;2023-07-28T08:48:34;2.75;;;1.30;;
70444;SDS011;57902;49.638;11.070;2023-07-28T08:51:01;2.80;;;1.20;;
70444;SDS011;57902;49.638;11.070;2023-07-28T08:53:28;2.17;;;1.20;;
70444;SDS011;57902;49.638;11.070;2023-07-28T08:55:55;2.90;;;1.20;;
70444;SDS011;57902;49.638;11.070;2023-07-28T08:58:22;3.08;;;1.15;;
70444;SDS011;57902;49.638;11.070;2023-07-28T09:00:52;2.67;;;1.13;;
70444;SDS011;57902;49.638;11.070;2023-07-28T09:03:19;2.63;;;1.20;;
70444;SDS011;57902;49.638;11.070;2023-07-28T09:08:14;3.05;;;1.23;;
70444;SDS011;57902;49.638;11.070;2023-07-28T09:10:45;2.58;;;1.20;;
70444;SDS011;57902;49.638;11.070;2023-07-28T09:13:16;2.13;;;1.23;;
70444;SDS011;57902;49.638;11.070;2023-07-28T09:15:44;2.05;;;1.10;;
70444;SDS011;57902;49.638;11.070;2023-07-28T09:18:12;2.40;;;1.10;;
70444;SDS011;57902;49.638;11.070;2023-07-28T09:20:40;2.78;;;1.10;;
70444;SDS011;57902;49.638;11.070;2023-07-28T09:23:08;1.83;;;1.00;;
70444;SDS011;57902;49.638;11.070;2023-07-28T09:25:37;2.17;;;1.08;;
70444;SDS011;57902;49.638;11.070;2023-07-28T09:28:04;2.65;;;1.30;;
70444;SDS011;57902;49.638;11.070;2023-07-28T09:30:46;3.63;;;1.10;;
70444;SDS011;57902;49.638;11.070;2023-07-28T09:33:28;4.13;;;1.20;;
70444;SDS011;57902;49.638;11.070;2023-07-28T09:36:06;2.15;;;1.10;;
70444;SDS011;57902;49.638;11.070;2023-07-28T09:38:38;3.20;;;0.95;;
70444;SDS011;57902;49.638;11.070;2023-07-28T09:41:07;4.00;;;1.25;;
70444;SDS011;57902;49.638;11.070;2023-07-28T09:43:37;2.85;;;1.17;;
70444;SDS011;57902;49.638;11.070;2023-07-28T09:46:04;1.90;;;1.05;;
70444;SDS011;57902;49.638;11.070;2023-07-28T09:48:33;1.80;;;0.90;;
70444;SDS011;57902;49.638;11.070;2023-07-28T09:53:40;1.95;;;0.90;;
70444;SDS011;57902;49.638;11.070;2023-07-28T09:56:10;1.77;;;1.00;;
70444;SDS011;57902;49.638;11.070;2023-07-28T09:58:41;2.33;;;0.90;;
70444;SDS011;57902;49.638;11.070;2023-07-28T10:01:09;2.13;;;0.80;;
70444;SDS011;57902;49.638;11.070;2023-07-28T10:03:37;2.38;;;0.95;;
70444;SDS011;57902;49.638;11.070;2023-07-28T10:06:04;2.80;;;1.00;;
70444;SDS011;57902;49.638;11.070;2023-07-28T10:08:33;3.28;;;0.90;;
70444;SDS011;57902;49.638;11.070;2023-07-28T10:11:02;3.55;;;1.00;;
70444;SDS011;57902;49.638;11.070;2023-07-28T10:13:39;3.30;;;0.98;;
70444;SDS011;57902;49.638;11.070;2023-07-28T10:16:09;2.60;;;0.90;;
70444;SDS011;57902;49.638;11.070;2023-07-28T10:18:36;1.88;;;1.00;;
70444;SDS011;57902;49.638;11.070;2023-07-28T10:21:05;2.47;;;0.90;;
70444;SDS011;57902;49.638;11.070;2023-07-28T10:23:33;7.10;;;1.20;;
70444;SDS011;57902;49.638;11.070;2023-07-28T10:26:03;1.23;;;0.70;;
70444;SDS011;57902;49.638;11.070;2023-07-28T10:28:33;2.88;;;0.80;;
70444;SDS011;57902;49.638;11.070;2023-07-28T10:31:05;1.65;;;0.80;;
70444;SDS011;57902;49.638;11.070;2023-07-28T10:33:36;3.15;;;1.00;;
70444;SDS011;57902;49.638;11.070;2023-07-28T10:36:11;3.33;;;1.00;;
70444;SDS011;57902;49.638;11.070;2023-07-28T10:38:59;2.30;;;0.90;;
70444;SDS011;57902;49.638;11.070;2023-07-28T10:41:26;1.60;;;0.90;;
70444;SDS011;57902;49.638;11.070;2023-07-28T10:43:53;3.92;;;1.00;;
70444;SDS011;57902;49.638;11.070;2023-07-28T10:46:20;1.95;;;0.90;;
70444;SDS011;57902;49.638;11.070;2023-07-28T10:48:48;1.52;;;0.80;;
70444;SDS011;57902;49.638;11.070;2023-07-28T10:51:20;4.05;;;1.20;;
70444;SDS011;57902;49.638;11.070;2023-07-28T10:53:55;2.92;;;0.90;;
70444;SDS011;57902;49.638;11.070;2023-07-28T10:56:22;1.70;;;0.90;;
70444;SDS011;57902;49.638;11.070;2023-07-28T10:58:56;1.85;;;0.90;;
70444;SDS011;57902;49.638;11.070;2023-07-28T11:01:33;5.80;;;1.02;;
70444;SDS011;57902;49.638;11.070;2023-07-28T11:06:35;2.20;;;1.00;;
70444;SDS011;57902;49.638;11.070;2023-07-28T11:09:02;1.58;;;0.90;;
70444;SDS011;57902;49.638;11.070;2023-07-28T11:11:32;2.83;;;0.98;;
70444;SDS011;57902;49.638;11.070;2023-07-28T11:14:00;2.63;;;1.10;;
70444;SDS011;57902;49.638;11.070;2023-07-28T11:16:27;3.38;;;1.10;;
70444;SDS011;57902;49.638;11.070;2023-07-28T11:18:59;4.85;;;1.20;;
70444;SDS011;57902;49.638;11.070;2023-07-28T11:21:36;1.98;;;0.90;;
70444;SDS011;57902;49.638;11.070;2023-07-28T11:24:04;3.03;;;1.10;;
70444;SDS011;57902;49.638;11.070;2023-07-28T11:26:32;1.77;;;0.88;;
70444;SDS011;57902;49.638;11.070;2023-07-28T11:29:01;2.47;;;0.98;;
70444;SDS011;57902;49.638;11.070;2023-07-28T11:31:28;2.20;;;1.10;;
70444;SDS011;57902;49.638;11.070;2023-07-28T11:33:54;2.83;;;1.15;;
70444;SDS011;57902;49.638;11.070;2023-07-28T11:36:28;3.30;;;1.02;;
70444;SDS011;57902;49.638;11.070;2023-07-28T11:38:58;1.65;;;1.00;;
70444;SDS011;57902;49.638;11.070;2023-07-28T11:41:27;1.48;;;0.90;;
70444;SDS011;57902;49.638;11.070;2023-07-28T11:43:54;3.22;;;1.10;;
70444;SDS011;57902;49.638;11.070;2023-07-28T11:49:15;9.02;;;1.23;;
70444;SDS011;57902;49.638;11.070;2023-07-28T11:51:46;3.78;;;1.10;;
70444;SDS011;57902;49.638;11.070;2023-07-28T11:54:15;2.22;;;1.02;;
70444;SDS011;57902;49.638;11.070;2023-07-28T11:56:43;2.45;;;0.88;;
70444;SDS011;57902;49.638;11.070;2023-07-28T11:59:17;1.55;;;1.00;;
70444;SDS011;57902;49.638;11.070;2023-07-28T12:01:52;2.90;;;1.15;;
70444;SDS011;57902;49.638;11.070;2023-07-28T12:09:54;2.67;;;1.00;;
70444;SDS011;57902;49.638;11.070;2023-07-28T12:12:30;1.48;;;0.90;;
70444;SDS011;57902;49.638;11.070;2023-07-28T12:15:28;3.05;;;1.17;;
70444;SDS011;57902;49.638;11.070;2023-07-28T12:18:02;3.78;;;1.10;;
70444;SDS011;57902;49.638;11.070;2023-07-28T12:20:55;2.00;;;1.05;;
70444;SDS011;57902;49.638;11.070;2023-07-28T12:23:20;3.85;;;1.27;;
70444;SDS011;57902;49.638;11.070;2023-07-28T12:25:50;10.85;;;7.75;;
70444;SDS011;57902;49.638;11.070;2023-07-28T12:28:17;2.92;;;1.10;;
70444;SDS011;57902;49.638;11.070;2023-07-28T12:30:45;2.88;;;1.10;;
70444;SDS011;57902;49.638;11.070;2023-07-28T12:33:15;2.97;;;1.10;;
70444;SDS011;57902;49.638;11.070;2023-07-28T12:35:45;1.73;;;1.10;;
70444;SDS011;57902;49.638;11.070;2023-07-28T12:38:14;1.92;;;0.90;;
70444;SDS011;57902;49.638;11.070;2023-07-28T12:40:43;4.18;;;1.25;;
70444;SDS011;57902;49.638;11.070;2023-07-28T12:43:13;2.03;;;0.90;;
70444;SDS011;57902;49.638;11.070;2023-07-28T12:45:42;1.70;;;0.90;;
70444;SDS011;57902;49.638;11.070;2023-07-28T12:48:12;2.72;;;0.90;;
70444;SDS011;57902;49.638;11.070;2023-07-28T12:50:41;2.70;;;0.85;;
70444;SDS011;57902;49.638;11.070;2023-07-28T12:53:07;1.95;;;0.95;;
70444;SDS011;57902;49.638;11.070;2023-07-28T12:55:43;3.58;;;0.98;;
70444;SDS011;57902;49.638;11.070;2023-07-28T12:58:12;3.40;;;1.02;;
70444;SDS011;57902;49.638;11.070;2023-07-28T13:00:42;2.67;;;0.95;;
70444;SDS011;57902;49.638;11.070;2023-07-28T13:03:12;1.80;;;0.90;;
70444;SDS011;57902;49.638;11.070;2023-07-28T13:05:39;5.95;;;1.30;;
70444;SDS011;57902;49.638;11.070;2023-07-28T13:08:05;3.97;;;1.10;;
70444;SDS011;57902;49.638;11.070;2023-07-28T13:10:36;2.65;;;1.10;;
70444;SDS011;57902;49.638;11.070;2023-07-28T13:13:06;3.08;;;1.10;;
70444;SDS011;57902;49.638;11.070;2023-07-28T13:15:39;4.00;;;1.00;;
70444;SDS011;57902;49.638;11.070;2023-07-28T13:18:06;2.30;;;1.10;;
70444;SDS011;57902;49.638;11.070;2023-07-28T13:20:32;1.83;;;0.93;;
70444;SDS011;57902;49.638;11.070;2023-07-28T13:22:59;3.35;;;1.13;;
70444;SDS011;57902;49.638;11.070;2023-07-28T13:25:25;3.25;;;1.00;;
70444;SDS011;57902;49.638;11.070;2023-07-28T13:27:52;2.47;;;1.10;;
70444;SDS011;57902;49.638;11.070;2023-07-28T13:30:19;3.42;;;1.30;;
70444;SDS011;57902;49.638;11.070;2023-07-28T13:32:46;3.17;;;1.30;;
70444;SDS011;57902;49.638;11.070;2023-07-28T13:35:13;1.52;;;0.93;;
70444;SDS011;57902;49.638;11.070;2023-07-28T13:37:41;3.35;;;1.00;;
70444;SDS011;57902;49.638;11.070;2023-07-28T13:40:07;1.83;;;1.00;;
70444;SDS011;57902;49.638;11.070;2023-07-28T13:42:38;1.83;;;1.02;;
70444;SDS011;57902;49.638;11.070;2023-07-28T13:45:04;2.50;;;1.08;;
70444;SDS011;57902;49.638;11.070;2023-07-28T13:47:31;1.38;;;0.85;;
70444;SDS011;57902;49.638;11.070;2023-07-28T13:49:58;1.90;;;0.80;;
70444;SDS011;57902;49.638;11.070;2023-07-28T13:52:24;1.75;;;0.90;;
70444;SDS011;57902;49.638;11.070;2023-07-28T13:54:54;1.92;;;0.93;;
70444;SDS011;57902;49.638;11.070;2023-07-28T13:57:24;3.45;;;1.10;;
70444;SDS011;57902;49.638;11.070;2023-07-28T14:00:09;2.70;;;1.10;;
70444;SDS011;57902;49.638;11.070;2023-07-28T14:02:39;3.00;;;0.85;;
70444;SDS011;57902;49.638;11.070;2023-07-28T14:05:16;1.48;;;0.80;;
70444;SDS011;57902;49.638;11.070;2023-07-28T14:07:49;1.55;;;0.80;;
70444;SDS011;57902;49.638;11.070;2023-07-28T14:10:43;2.17;;;0.98;;
70444;SDS011;57902;49.638;11.070;2023-07-28T14:13:29;0.82;;;0.77;;
70444;SDS011;57902;49.638;11.070;2023-07-28T14:17:00;2.95;;;1.00;;
70444;SDS011;57902;49.638;11.070;2023-07-28T14:19:45;1.05;;;0.70;;
70444;SDS011;57902;49.638;11.070;2023-07-28T14:25:09;1.52;;;0.88;;
70444;SDS011;57902;49.638;11.070;2023-07-28T14:28:23;2.10;;;0.93;;
70444;SDS011;57902;49.638;11.070;2023-07-28T14:30:59;2.08;;;0.90;;
70444;SDS011;57902;49.638;11.070;2023-07-28T14:33:33;1.45;;;0.90;;
70444;SDS011;57902;49.638;11.070;2023-07-28T14:36:31;1.48;;;0.80;;
70444;SDS011;57902;49.638;11.070;2023-07-28T14:39:17;1.23;;;0.90;;
70444;SDS011;57902;49.638;11.070;2023-07-28T14:41:46;3.78;;;1.10;;
70444;SDS011;57902;49.638;11.070;2023-07-28T14:44:23;5.10;;;1.10;;
70444;SDS011;57902;49.638;11.070;2023-07-28T14:46:53;1.58;;;1.00;;
70444;SDS011;57902;49.638;11.070;2023-07-28T14:49:20;2.85;;;1.02;;
70444;SDS011;57902;49.638;11.070;2023-07-28T14:51:52;3.38;;;0.80;;
70444;SDS011;57902;49.638;11.070;2023-07-28T14:54:22;3.50;;;1.02;;
70444;SDS011;57902;49.638;11.070;2023-07-28T14:56:50;2.08;;;0.80;;
70444;SDS011;57902;49.638;11.070;2023-07-28T14:59:19;2.65;;;0.80;;
70444;SDS011;57902;49.638;11.070;2023-07-28T15:01:46;1.48;;;0.80;;
70444;SDS011;57902;49.638;11.070;2023-07-28T15:04:14;2.92;;;1.20;;
70444;SDS011;57902;49.638;11.070;2023-07-28T15:06:46;1.40;;;0.90;;
70444;SDS011;57902;49.638;11.070;2023-07-28T15:09:16;2.85;;;0.80;;
70444;SDS011;57902;49.638;11.070;2023-07-28T15:11:50;2.40;;;1.08;;
70444;SDS011;57902;49.638;11.070;2023-07-28T15:14:17;3.55;;;1.02;;
70444;SDS011;57902;49.638;11.070;2023-07-28T15:16:49;3.25;;;0.95;;
70444;SDS011;57902;49.638;11.070;2023-07-28T15:19:19;3.95;;;1.20;;